Latest Weather Observations for Essendon Airport

IDV60801

Issued at 6:32 am EST Saturday 24 June 2017 (issued every 30 minutes, with the page automatically refreshed every 10 minutes)

About weather observations | Map of weather stations | Latest weather observations for VIC | Other Formats
Station Details ID: 086038 Name: ESSENDON AIRPORT Lat: -37.73 Lon: 144.91 Height: 78.4 m
Data from the previous 72 hours. | See also: Recent months at Essendon Airport
Date/Time
EST
Temp
°C
App
Temp
°C
Dew
Point
°C
Rel
Hum
%
Delta-T
°C
Wind Press
QNH
hPa
Press
MSL
hPa
Rain since
9am
mm
Dir  Spd
km/h
Gust
km/h
Spd
kts
Gust
kts
24/06:30am 8.0 5.0 7.9 99 0.0 NW 13 17 7 9 1017.1 1017.2 3.8
24/06:00am 7.9 4.9 7.8 99 0.0 WNW 13 17 7 9 1016.8 1016.9 3.8
24/05:30am 8.0 5.1 8.0 100 0.0 WNW 13 17 7 9 1016.6 1016.7 3.8
24/05:00am 8.2 5.3 8.2 100 0.0 WNW 13 15 7 8 1016.3 1016.4 3.8
24/04:30am 8.4 5.9 8.4 100 0.0 WNW 11 15 6 8 1016.0 1016.1 3.8
24/04:00am 8.4 5.6 8.4 100 0.0 W 13 17 7 9 1016.1 1016.2 3.8
24/03:30am 8.8 6.8 8.8 100 0.0 W 9 15 5 8 1016.1 1016.2 3.8
24/03:00am 9.0 6.7 9.0 100 0.0 WSW 11 13 6 7 1016.0 1016.1 3.8
24/02:30am 9.0 6.3 8.9 99 0.0 SW 13 17 7 9 1015.9 1016.0 3.6
24/02:27am 9.1 6.4 9.0 99 0.0 SW 13 20 7 11 1015.8 1015.9 3.6
24/02:00am 9.7 5.8 9.6 99 0.1 SW 20 32 11 17 1015.6 1015.7 3.6
24/01:49am 9.9 7.5 9.9 100 0.0 W 13 20 7 11 1015.4 1015.5 3.4
24/01:30am 9.8 6.9 9.8 100 0.0 WNW 15 26 8 14 1015.0 1015.2 3.4
24/01:00am 8.9 7.0 8.9 100 0.0 NW 9 13 5 7 1014.9 1015.1 3.4
24/12:30am 8.7 6.7 8.7 100 0.0 NNW 9 13 5 7 1014.9 1015.1 3.4
24/12:00am 9.3 6.7 9.3 100 0.0 NNW 13 17 7 9 1015.0 1015.2 3.4
 
Date/Time
EST
Temp
°C
App
Temp
°C
Dew
Point
°C
Rel
Hum
%
Delta-T
°C
Wind Press
QNH
hPa
Press
MSL
hPa
Rain since
9am
mm
Dir  Spd
km/h
Gust
km/h
Spd
kts
Gust
kts
23/11:32pm 9.8 6.0 9.7 99 0.1 W 20 26 11 14 1015.4 1015.5 3.0
23/11:30pm 9.7 5.8 9.6 99 0.1 W 20 26 11 14 1015.4 1015.5 3.0
23/11:15pm 9.8 5.9 9.5 98 0.1 WSW 20 32 11 17 1015.5 1015.6 2.4
23/11:12pm 9.9 6.2 9.4 97 0.2 WSW 19 26 10 14 1015.5 1015.6 1.8
23/11:01pm 10.0 6.9 8.8 92 0.6 WSW 15 24 8 13 1015.6 1015.7 1.0
23/11:00pm 10.0 7.2 8.6 91 0.7 WSW 13 20 7 11 1015.6 1015.7 1.0
23/10:30pm 10.8 6.6 7.5 80 1.6 NNW 19 24 10 13 1014.8 1015.0 0.0
23/10:00pm 10.8 6.4 7.5 80 1.6 NNW 20 26 11 14 1014.7 1014.9 0.0
23/09:30pm 10.4 6.0 7.3 81 1.5 NNW 20 30 11 16 1014.7 1014.9 0.0
23/09:00pm 10.1 5.7 7.3 83 1.3 NNW 20 26 11 14 1014.4 1014.6 0.0
23/08:30pm 10.5 6.1 7.2 80 1.6 NNW 20 28 11 15 1014.4 1014.6 0.0
23/08:00pm 10.6 6.4 7.3 80 1.6 NNW 19 28 10 15 1014.4 1014.6 0.0
23/07:30pm 11.2 7.8 7.7 79 1.7 NNW 15 20 8 11 1014.3 1014.5 0.0
23/07:00pm 11.1 9.0 8.1 82 1.5 NNW 9 13 5 7 1014.2 1014.4 0.0
23/06:30pm 11.3 8.2 7.4 77 1.9 NNW 13 19 7 10 1013.8 1013.9 0.0
23/06:00pm 11.2 7.0 7.3 77 1.9 NNW 19 28 10 15 1013.5 1013.6 0.0
23/05:30pm 11.3 6.9 7.2 76 2.0 N 20 28 11 15 1013.3 1013.4 0.0
23/05:00pm 11.8 6.6 7.1 73 2.3 NNW 24 32 13 17 1013.5 1013.6 0.0
23/04:30pm 11.7 5.7 7.0 73 2.3 NNW 28 39 15 21 1013.3 1013.4 0.0
23/04:00pm 11.7 7.4 7.2 74 2.2 N 19 30 10 16 1013.5 1013.6 0.0
23/03:30pm 11.9 7.0 7.0 72 2.4 N 22 30 12 16 1013.6 1013.7 0.0
23/03:00pm 12.1 6.8 7.0 71 2.5 N 24 32 13 17 1013.6 1013.7 0.0
23/02:30pm 11.6 6.3 6.7 72 2.3 N 24 39 13 21 1013.8 1013.9 0.0
23/02:00pm 12.4 4.6 6.7 68 2.7 N 37 48 20 26 1013.6 1013.7 0.0
23/01:30pm 12.5 5.1 6.8 68 2.7 N 35 50 19 27 1014.1 1014.2 0.0
23/01:05pm 12.8 5.4 6.6 66 3.0 N 35 54 19 29 1014.3 1014.5 0.0
23/01:00pm 13.0 6.0 6.8 66 3.0 N 33 48 18 26 1014.4 1014.6 0.0
23/12:30pm 13.0 6.5 6.6 65 3.1 N 30 43 16 23 1015.2 1015.3 0.0
23/12:13pm 13.1 6.7 6.9 66 3.0 N 30 48 16 26 1015.7 1015.8 0.0
23/12:00pm 12.4 5.6 6.7 68 2.7 N 32 43 17 23 1016.1 1016.2 0.0
23/11:30am 12.4 5.5 6.5 67 2.8 N 32 43 17 23 1016.7 1016.8 0.0
23/11:00am 12.3 7.4 6.8 69 2.6 N 22 35 12 19 1017.3 1017.4 0.0
23/10:30am 11.3 6.0 6.8 74 2.1 N 24 33 13 18 1017.9 1018.0 0.0
23/10:00am 10.6 5.7 6.9 78 1.8 N 22 28 12 15 1018.1 1018.2 0.0
23/09:30am 9.5 5.1 6.6 82 1.4 N 19 26 10 14 1018.5 1018.6 0.0
23/09:00am 8.3 4.2 6.3 87 0.9 N 17 26 9 14 1018.5 1018.6 0.0
23/08:30am 7.5 3.0 6.1 91 0.6 N 19 26 10 14 1018.7 1018.8 0.0
23/08:00am 6.9 2.3 5.8 93 0.5 N 19 24 10 13 1018.7 1018.8 0.0
23/07:30am 6.4 2.1 5.4 93 0.4 N 17 20 9 11 1018.7 1018.8 0.0
23/07:00am 6.8 2.2 5.4 91 0.6 N 19 28 10 15 1018.5 1018.6 0.0
23/06:30am 7.1 2.5 5.7 91 0.6 N 19 24 10 13 1018.6 1018.7 0.0
23/06:00am 7.4 2.7 6.0 91 0.6 N 20 28 11 15 1018.5 1018.6 0.0
23/05:30am 7.5 3.4 6.3 92 0.5 N 17 24 9 13 1018.3 1018.4 0.0
23/05:00am 7.3 3.9 6.1 92 0.5 N 13 19 7 10 1018.6 1018.7 0.0
23/04:30am 7.7 3.2 6.3 91 0.6 N 19 26 10 14 1019.1 1019.2 0.0
23/04:00am 7.9 4.2 6.5 91 0.6 N 15 22 8 12 1019.4 1019.5 0.0
23/03:30am 7.7 4.4 6.2 90 0.7 N 13 17 7 9 1019.8 1019.9 0.0
23/03:00am 8.5 4.1 6.6 88 0.9 N 19 26 10 14 1019.9 1020.0 0.0
23/02:30am 8.6 4.7 6.9 89 0.8 NNW 17 22 9 12 1020.1 1020.2 0.0
23/02:00am 9.0 4.7 6.8 86 1.0 N 19 28 10 15 1020.1 1020.2 0.0
23/01:30am 9.1 4.7 6.4 83 1.3 N 19 28 10 15 1020.4 1020.5 0.0
23/01:00am 9.6 5.0 6.5 81 1.4 N 20 26 11 14 1020.6 1020.7 0.0
23/12:30am 9.6 4.9 6.1 79 1.6 N 20 28 11 15 1021.0 1021.1 0.0
23/12:00am 9.6 5.1 6.3 80 1.5 N 19 30 10 16 1021.4 1021.5 0.0
 
Date/Time
EST
Temp
°C
App
Temp
°C
Dew
Point
°C
Rel
Hum
%
Delta-T
°C
Wind Press
QNH
hPa
Press
MSL
hPa
Rain since
9am
mm
Dir  Spd
km/h
Gust
km/h
Spd
kts
Gust
kts
22/11:30pm 9.4 4.7 5.9 79 1.6 N 20 26 11 14 1021.8 1021.9 0.0
22/11:00pm 9.6 4.9 6.0 78 1.7 N 20 26 11 14 1022.0 1022.1 0.0
22/10:30pm 9.9 5.8 6.3 78 1.7 N 17 20 9 11 1022.5 1022.6 0.0
22/10:00pm 10.0 6.3 6.2 77 1.8 N 15 20 8 11 1022.8 1022.9 0.0
22/09:30pm 10.0 6.3 6.2 77 1.8 N 15 20 8 11 1023.0 1023.1 0.0
22/09:00pm 10.0 6.7 6.2 77 1.8 N 13 17 7 9 1023.3 1023.4 0.0
22/08:30pm 10.1 6.8 6.3 77 1.8 N 13 19 7 10 1023.4 1023.5 0.0
22/08:00pm 10.1 6.7 6.1 76 1.8 N 13 19 7 10 1023.4 1023.5 0.0
22/07:30pm 10.5 6.8 6.3 75 2.0 N 15 20 8 11 1023.6 1023.7 0.0
22/07:00pm 10.9 7.2 6.5 74 2.1 N 15 22 8 12 1023.8 1023.9 0.0
22/06:30pm 10.9 8.0 6.3 73 2.2 N 11 15 6 8 1023.7 1023.8 0.0
22/06:00pm 11.6 8.3 6.5 71 2.4 N 13 15 7 8 1023.6 1023.7 0.0
22/05:30pm 11.9 8.6 6.6 70 2.5 N 13 19 7 10 1023.4 1023.5 0.0
22/05:00pm 12.2 9.0 6.7 69 2.6 N 13 19 7 10 1023.5 1023.6 0.0
22/04:30pm 12.3 8.7 6.8 69 2.6 N 15 19 8 10 1023.8 1023.9 0.0
22/04:00pm 12.4 8.4 6.7 68 2.7 N 17 24 9 13 1024.0 1024.1 0.0
22/03:30pm 12.8 8.9 7.0 68 2.8 N 17 22 9 12 1024.3 1024.4 0.0
22/03:00pm 12.8 8.9 7.0 68 2.8 N 17 22 9 12 1024.7 1024.8 0.0
22/02:30pm 12.6 8.7 7.1 69 2.7 N 17 22 9 12 1024.9 1025.1 0.0
22/02:00pm 12.6 8.7 6.9 68 2.7 N 17 22 9 12 1025.1 1025.3 0.0
22/01:30pm 12.6 8.5 6.2 65 3.0 N 17 24 9 13 1025.4 1025.6 0.0
22/01:00pm 12.8 8.4 6.6 66 3.0 N 19 26 10 14 1025.7 1025.9 0.0
22/12:30pm 12.6 8.4 5.8 63 3.2 N 17 24 9 13 1026.0 1026.2 0.0
22/12:00pm 12.4 8.3 6.2 66 2.9 N 17 24 9 13 1026.4 1026.6 0.0
22/11:30am 12.1 7.4 5.9 66 2.9 N 20 28 11 15 1026.8 1027.0 0.0
22/11:00am 12.1 8.6 7.0 71 2.4 N 15 20 8 11 1027.3 1027.5 0.0
22/10:30am 11.4 7.8 6.9 74 2.2 N 15 19 8 10 1027.7 1027.9 0.0
22/10:00am 9.2 7.2 8.7 97 0.2 N 9 13 5 7 1027.9 1028.1 0.0
22/09:30am 7.9 5.7 7.9 100 0.0 NNW 9 13 5 7 1028.1 1028.3 0.0
22/09:00am 6.2 3.6 6.2 100 0.0 N 9 13 5 7 1028.0 1028.2 0.2
22/08:30am 5.0 1.8 5.0 100 0.0 NE 11 13 6 7 1027.9 1028.1 0.2
22/08:00am 4.6 1.7 4.6 100 0.0 ENE 9 11 5 6 1027.9 1028.1 0.2
22/07:30am 3.8 1.3 3.8 100 0.0 ENE 6 9 3 5 1028.1 1028.3 0.2
22/07:00am 4.4 1.1 4.4 100 0.0 NE 11 13 6 7 1027.8 1028.0 0.2
22/06:30am 4.1 1.5 4.1 100 0.0 N 7 9 4 5 1027.7 1027.9 0.2
22/06:00am 3.9 0.5 3.9 100 0.0 N 11 13 6 7 1027.5 1027.7 0.2
22/05:30am 3.8 0.4 3.8 100 0.0 N 11 15 6 8 1027.5 1027.7 0.2
22/05:00am 3.9 0.5 3.9 100 0.0 NNW 11 11 6 6 1027.5 1027.7 0.2
22/04:30am 4.1 1.1 4.1 100 0.0 NW 9 11 5 6 1027.5 1027.7 0.2
22/04:00am 4.9 2.0 4.9 100 0.0 WNW 9 11 5 6 1027.7 1027.9 0.2
22/03:30am 5.0 1.8 4.9 99 0.0 WSW 11 19 6 10 1027.6 1027.8 0.2
22/03:00am 6.1 4.0 6.0 99 0.0 N 6 9 3 5 1027.6 1027.8 0.2
22/02:30am 7.7 7.2 7.7 100 0.0 CALM 0 6 0 3 1027.6 1027.8 0.2
22/02:00am 7.8 5.6 7.8 100 0.0 NNW 9 11 5 6 1027.8 1028.0 0.2
22/01:30am 7.8 5.9 7.7 99 0.0 NNW 7 11 4 6 1027.8 1028.0 0.2
22/01:00am 8.0 5.8 7.9 99 0.0 NE 9 9 5 5 1027.9 1028.1 0.2
22/12:30am 8.1 7.6 8.0 99 0.0 CALM 0 0 0 0 1028.3 1028.5 0.2
22/12:00am 8.9 7.5 8.8 99 0.0 NNW 6 11 3 6 1028.6 1028.7 0.2
 
Date/Time
EST
Temp
°C
App
Temp
°C
Dew
Point
°C
Rel
Hum
%
Delta-T
°C
Wind Press
QNH
hPa
Press
MSL
hPa
Rain since
9am
mm
Dir  Spd
km/h
Gust
km/h
Spd
kts
Gust
kts
21/11:30pm 9.3 8.0 9.2 99 0.0 WNW 6 7 3 4 1028.9 1029.0 0.2
21/11:00pm 9.3 7.8 9.2 99 0.0 WNW 7 9 4 5 1029.0 1029.1 0.2
21/10:30pm 9.1 7.1 8.5 96 0.3 WNW 9 9 5 5 1029.2 1029.3 0.2
21/10:00pm 9.0 7.4 8.2 95 0.4 WSW 6 7 3 4 1029.4 1029.5 0.2
21/09:30pm 8.3 6.3 6.9 91 0.7 WSW 7 9 4 5 1029.5 1029.6 0.2
21/09:00pm 9.1 6.7 7.1 87 0.9 ESE 9 13 5 7 1029.2 1029.3 0.2
21/08:30pm 10.2 9.7 8.0 86 1.1 CALM 0 6 0 3 1029.3 1029.4 0.2
21/08:00pm 10.7 10.3 8.1 84 1.3 CALM 0 4 0 2 1029.4 1029.5 0.2
21/07:50pm 10.4 9.2 8.0 85 1.2 SSE 4 6 2 3 1029.4 1029.5 0.2
21/07:34pm 10.1 9.2 7.7 85 1.2 SSE 2 6 1 3 1029.2 1029.3 0.2
21/07:30pm 10.1 8.4 7.5 84 1.2 SSE 6 7 3 4 1029.2 1029.3 0.2
21/07:00pm 10.4 8.7 7.5 82 1.4 S 6 7 3 4 1029.1 1029.2 0.2
21/06:30pm 10.5 8.1 7.0 79 1.7 SSW 9 13 5 7 1028.8 1028.9 0.2
21/06:00pm 11.3 8.9 7.2 76 2.0 SSE 9 13 5 7 1028.3 1028.5 0.2
21/05:30pm 11.5 9.2 7.4 76 2.0 SSE 9 11 5 6 1028.3 1028.5 0.2
21/05:00pm 11.6 9.6 8.6 82 1.5 SSE 9 11 5 6 1028.3 1028.5 0.2
21/04:30pm 11.8 9.2 9.4 85 1.2 S 13 17 7 9 1028.1 1028.3 0.2
21/04:00pm 12.2 9.9 9.0 81 1.6 SSE 11 13 6 7 1028.1 1028.3 0.2
21/03:30pm 12.1 9.9 9.3 83 1.4 SSE 11 17 6 9 1028.1 1028.3 0.2
21/03:00pm 12.1 9.9 9.3 83 1.4 S 11 15 6 8 1028.2 1028.4 0.2
21/02:30pm 12.4 10.5 9.2 81 1.6 SSE 9 15 5 8 1028.2 1028.4 0.0
21/02:00pm 12.5 10.0 9.7 83 1.4 S 13 19 7 10 1028.1 1028.3 0.0
21/01:30pm 12.2 9.0 9.9 86 1.2 S 17 22 9 12 1028.1 1028.3 0.0
21/01:00pm 12.9 10.8 9.9 82 1.5 SW 11 17 6 9 1028.2 1028.4 0.0
21/12:39pm 12.8 11.2 10.2 84 1.3 WSW 9 13 5 7 1028.2 1028.4 0.0
21/12:30pm 12.9 11.7 10.3 84 1.3 WSW 7 9 4 5 1028.3 1028.5 0.0
21/12:00pm 12.9 12.2 11.3 90 0.8 WSW 6 9 3 5 1028.7 1028.8 0.0
21/11:30am 12.4 12.3 12.1 98 0.2 W 4 7 2 4 1028.9 1029.0 0.0
21/11:00am 11.9 10.8 11.9 100 0.0 WNW 9 11 5 6 1029.3 1029.4 0.0
21/10:30am 11.3 10.0 11.3 100 0.0 WNW 9 13 5 7 1029.2 1029.3 0.0
21/10:00am 11.0 9.6 11.0 100 0.0 NNW 9 11 5 6 1029.2 1029.3 0.0
21/09:35am 10.6 9.1 10.6 100 0.0 NW 9 11 5 6 1029.1 1029.2 0.0
21/09:30am 10.6 9.1 10.6 100 0.0 NW 9 11 5 6 1029.0 1029.1 0.0
21/09:29am 10.5 9.0 10.5 100 0.0 NW 9 11 5 6 1029.0 1029.1 0.0
21/09:00am 10.4 9.2 10.4 100 0.0 WNW 7 11 4 6 1028.7 1028.8 0.2
21/08:58am 10.4 9.2 10.4 100 0.0 WNW 7 11 4 6 1028.7 1028.8 0.2
21/08:36am 10.3 8.7 10.3 100 0.0 WNW 9 13 5 7 1028.6 1028.7 0.0
21/08:30am 10.3 9.1 10.3 100 0.0 WNW 7 11 4 6 1028.5 1028.6 0.0
21/08:12am 10.2 8.6 10.2 100 0.0 WNW 9 11 5 6 1028.2 1028.4 0.0
21/08:05am 10.1 8.8 10.1 100 0.0 WNW 7 11 4 6 1028.0 1028.2 0.0
21/08:00am 10.0 8.3 10.0 100 0.0 WNW 9 11 5 6 1028.0 1028.2 0.0
21/07:30am 10.1 8.4 9.8 98 0.2 W 9 11 5 6 1027.8 1028.0 0.0
21/07:22am 10.2 8.4 9.6 96 0.3 W 9 13 5 7 1027.7 1027.9 0.0
21/07:00am 10.4 8.9 9.2 92 0.6 WSW 7 9 4 5 1027.5 1027.7 0.0

Other Formats:

Comma delimited format used in spreadsheet applications
http://www.bom.gov.au/fwo/IDV60801/IDV60801.95866.axf

JavaScript Object Notation format (JSON) in row-major order
http://www.bom.gov.au/fwo/IDV60801/IDV60801.95866.json